sensor_id;sensor_type;location;lat;lon;timestamp;pressure;altitude;pressure_sealevel;temperature;humidity
60371;BME280;48550;40.588;49.684;2023-02-28T00:00:49;102429.75;;;5.41;100.00
60371;BME280;48550;40.588;49.684;2023-02-28T00:03:15;102437.25;;;5.46;100.00
60371;BME280;48550;40.588;49.684;2023-02-28T00:05:41;102429.25;;;5.72;100.00
60371;BME280;48550;40.588;49.684;2023-02-28T00:08:07;102428.44;;;5.46;100.00
60371;BME280;48550;40.588;49.684;2023-02-28T00:10:33;102420.38;;;5.63;100.00
60371;BME280;48550;40.588;49.684;2023-02-28T00:13:01;102433.69;;;5.63;100.00
60371;BME280;48550;40.588;49.684;2023-02-28T00:15:27;102432.72;;;5.64;100.00
60371;BME280;48550;40.588;49.684;2023-02-28T00:17:53;102432.72;;;6.49;100.00
60371;BME280;48550;40.588;49.684;2023-02-28T00:20:19;102427.16;;;6.18;100.00
60371;BME280;48550;40.588;49.684;2023-02-28T00:22:47;102415.63;;;6.01;100.00
60371;BME280;48550;40.588;49.684;2023-02-28T00:25:16;102423.53;;;6.27;100.00
60371;BME280;48550;40.588;49.684;2023-02-28T00:27:42;102414.25;;;6.63;100.00
60371;BME280;48550;40.588;49.684;2023-02-28T00:30:12;102419.63;;;7.04;100.00
60371;BME280;48550;40.588;49.684;2023-02-28T00:32:38;102419.22;;;6.42;100.00
60371;BME280;48550;40.588;49.684;2023-02-28T00:35:04;102422.25;;;5.97;100.00
60371;BME280;48550;40.588;49.684;2023-02-28T00:37:30;102420.66;;;5.86;100.00
60371;BME280;48550;40.588;49.684;2023-02-28T00:39:56;102424.00;;;6.22;100.00
60371;BME280;48550;40.588;49.684;2023-02-28T00:42:23;102422.06;;;5.64;100.00
60371;BME280;48550;40.588;49.684;2023-02-28T00:44:48;102415.28;;;5.44;100.00
60371;BME280;48550;40.588;49.684;2023-02-28T00:47:14;102416.84;;;5.55;100.00
60371;BME280;48550;40.588;49.684;2023-02-28T00:49:40;102406.31;;;5.45;100.00
60371;BME280;48550;40.588;49.684;2023-02-28T00:52:06;102419.63;;;5.79;100.00
60371;BME280;48550;40.588;49.684;2023-02-28T00:54:32;102418.00;;;5.26;100.00
60371;BME280;48550;40.588;49.684;2023-02-28T00:56:58;102410.81;;;6.13;100.00
60371;BME280;48550;40.588;49.684;2023-02-28T00:59:23;102418.63;;;5.80;100.00
60371;BME280;48550;40.588;49.684;2023-02-28T01:01:49;102412.97;;;5.49;100.00
60371;BME280;48550;40.588;49.684;2023-02-28T01:04:15;102413.50;;;5.27;100.00
60371;BME280;48550;40.588;49.684;2023-02-28T01:06:41;102411.91;;;5.16;100.00
60371;BME280;48550;40.588;49.684;2023-02-28T01:09:08;102419.63;;;5.01;100.00
60371;BME280;48550;40.588;49.684;2023-02-28T01:11:34;102414.69;;;4.89;100.00
60371;BME280;48550;40.588;49.684;2023-02-28T01:14:00;102420.34;;;4.86;100.00
60371;BME280;48550;40.588;49.684;2023-02-28T01:16:26;102417.13;;;5.00;100.00
60371;BME280;48550;40.588;49.684;2023-02-28T01:18:52;102414.41;;;4.92;100.00
60371;BME280;48550;40.588;49.684;2023-02-28T01:21:20;102410.09;;;5.17;100.00
60371;BME280;48550;40.588;49.684;2023-02-28T01:23:47;102411.41;;;4.95;100.00
60371;BME280;48550;40.588;49.684;2023-02-28T01:26:18;102401.59;;;5.39;100.00
60371;BME280;48550;40.588;49.684;2023-02-28T01:28:44;102406.19;;;5.55;100.00
60371;BME280;48550;40.588;49.684;2023-02-28T01:31:10;102405.09;;;5.39;100.00
60371;BME280;48550;40.588;49.684;2023-02-28T01:33:36;102419.78;;;5.78;100.00
60371;BME280;48550;40.588;49.684;2023-02-28T01:36:16;102407.81;;;6.08;100.00
60371;BME280;48550;40.588;49.684;2023-02-28T01:38:43;102406.81;;;5.49;100.00
60371;BME280;48550;40.588;49.684;2023-02-28T01:41:15;102411.31;;;5.22;100.00
60371;BME280;48550;40.588;49.684;2023-02-28T01:46:10;102424.03;;;4.93;100.00
60371;BME280;48550;40.588;49.684;2023-02-28T01:48:40;102408.88;;;4.67;100.00
60371;BME280;48550;40.588;49.684;2023-02-28T01:51:21;102406.81;;;4.61;100.00
60371;BME280;48550;40.588;49.684;2023-02-28T01:53:52;102413.03;;;4.70;100.00
60371;BME280;48550;40.588;49.684;2023-02-28T01:56:22;102415.56;;;5.15;100.00
60371;BME280;48550;40.588;49.684;2023-02-28T01:58:51;102422.81;;;5.23;100.00
60371;BME280;48550;40.588;49.684;2023-02-28T02:01:19;102426.25;;;5.41;100.00
60371;BME280;48550;40.588;49.684;2023-02-28T02:03:55;102437.63;;;5.07;100.00
60371;BME280;48550;40.588;49.684;2023-02-28T02:06:26;102436.84;;;5.15;100.00
60371;BME280;48550;40.588;49.684;2023-02-28T02:08:53;102439.66;;;5.31;100.00
60371;BME280;48550;40.588;49.684;2023-02-28T02:11:20;102435.16;;;5.58;100.00
60371;BME280;48550;40.588;49.684;2023-02-28T02:17:00;102444.31;;;5.29;100.00
60371;BME280;48550;40.588;49.684;2023-02-28T02:19:51;102437.56;;;4.99;100.00
60371;BME280;48550;40.588;49.684;2023-02-28T02:34:22;102433.56;;;5.39;100.00
60371;BME280;48550;40.588;49.684;2023-02-28T02:36:36;102441.34;;;5.58;100.00
60371;BME280;48550;40.588;49.684;2023-02-28T02:41:56;102439.03;;;5.63;100.00
60371;BME280;48550;40.588;49.684;2023-02-28T02:47:29;102438.00;;;5.30;100.00
60371;BME280;48550;40.588;49.684;2023-02-28T02:49:58;102441.00;;;5.61;100.00
60371;BME280;48550;40.588;49.684;2023-02-28T02:52:34;102440.75;;;5.47;100.00
60371;BME280;48550;40.588;49.684;2023-02-28T02:55:03;102440.50;;;5.14;100.00
60371;BME280;48550;40.588;49.684;2023-02-28T02:57:35;102431.84;;;5.12;100.00
60371;BME280;48550;40.588;49.684;2023-02-28T03:00:04;102442.53;;;5.38;100.00
60371;BME280;48550;40.588;49.684;2023-02-28T03:02:34;102439.16;;;5.88;100.00
60371;BME280;48550;40.588;49.684;2023-02-28T03:05:06;102439.94;;;6.06;100.00
60371;BME280;48550;40.588;49.684;2023-02-28T03:07:34;102436.25;;;5.73;100.00
60371;BME280;48550;40.588;49.684;2023-02-28T03:09:59;102437.88;;;5.40;100.00
60371;BME280;48550;40.588;49.684;2023-02-28T03:12:38;102454.34;;;5.35;100.00
60371;BME280;48550;40.588;49.684;2023-02-28T03:17:44;102463.75;;;5.48;100.00
60371;BME280;48550;40.588;49.684;2023-02-28T03:20:37;102468.13;;;5.57;100.00
60371;BME280;48550;40.588;49.684;2023-02-28T03:23:10;102462.31;;;5.61;100.00
60371;BME280;48550;40.588;49.684;2023-02-28T03:28:29;102482.56;;;5.80;100.00
60371;BME280;48550;40.588;49.684;2023-02-28T03:33:40;102475.94;;;5.84;100.00
60371;BME280;48550;40.588;49.684;2023-02-28T03:36:12;102481.59;;;5.81;100.00
60371;BME280;48550;40.588;49.684;2023-02-28T03:38:49;102486.03;;;5.72;100.00
60371;BME280;48550;40.588;49.684;2023-02-28T03:41:31;102497.72;;;5.54;100.00
60371;BME280;48550;40.588;49.684;2023-02-28T03:44:03;102506.31;;;5.91;100.00
60371;BME280;48550;40.588;49.684;2023-02-28T03:46:34;102511.22;;;5.78;100.00
60371;BME280;48550;40.588;49.684;2023-02-28T03:49:22;102523.59;;;5.87;100.00
60371;BME280;48550;40.588;49.684;2023-02-28T03:51:50;102524.66;;;5.94;100.00
60371;BME280;48550;40.588;49.684;2023-02-28T03:54:21;102529.81;;;5.70;100.00
60371;BME280;48550;40.588;49.684;2023-02-28T03:57:27;102539.16;;;5.74;100.00
60371;BME280;48550;40.588;49.684;2023-02-28T04:00:06;102545.31;;;5.92;100.00
60371;BME280;48550;40.588;49.684;2023-02-28T04:02:34;102551.78;;;5.72;100.00
60371;BME280;48550;40.588;49.684;2023-02-28T04:05:00;102550.50;;;6.28;100.00
60371;BME280;48550;40.588;49.684;2023-02-28T04:07:29;102565.72;;;6.01;100.00
60371;BME280;48550;40.588;49.684;2023-02-28T04:09:55;102565.63;;;5.93;100.00
60371;BME280;48550;40.588;49.684;2023-02-28T04:12:21;102567.25;;;5.68;100.00
60371;BME280;48550;40.588;49.684;2023-02-28T04:14:49;102573.28;;;5.53;100.00
60371;BME280;48550;40.588;49.684;2023-02-28T04:17:15;102575.66;;;5.56;100.00
60371;BME280;48550;40.588;49.684;2023-02-28T04:19:41;102575.50;;;5.57;100.00
60371;BME280;48550;40.588;49.684;2023-02-28T04:22:09;102582.50;;;5.58;100.00
60371;BME280;48550;40.588;49.684;2023-02-28T04:24:35;102582.97;;;5.54;100.00
60371;BME280;48550;40.588;49.684;2023-02-28T04:27:01;102592.88;;;5.43;100.00
60371;BME280;48550;40.588;49.684;2023-02-28T04:29:29;102591.28;;;5.33;100.00
60371;BME280;48550;40.588;49.684;2023-02-28T04:31:56;102601.31;;;5.39;100.00
60371;BME280;48550;40.588;49.684;2023-02-28T04:34:30;102598.84;;;5.63;100.00
60371;BME280;48550;40.588;49.684;2023-02-28T04:36:56;102614.75;;;5.55;100.00
60371;BME280;48550;40.588;49.684;2023-02-28T04:39:23;102615.69;;;5.46;100.00
60371;BME280;48550;40.588;49.684;2023-02-28T04:41:50;102627.47;;;5.26;100.00
60371;BME280;48550;40.588;49.684;2023-02-28T04:44:16;102619.78;;;5.40;100.00
60371;BME280;48550;40.588;49.684;2023-02-28T04:46:43;102619.31;;;5.63;100.00
60371;BME280;48550;40.588;49.684;2023-02-28T04:49:11;102619.53;;;6.05;100.00
60371;BME280;48550;40.588;49.684;2023-02-28T04:51:36;102623.63;;;5.82;100.00
60371;BME280;48550;40.588;49.684;2023-02-28T04:54:02;102624.13;;;5.95;100.00
60371;BME280;48550;40.588;49.684;2023-02-28T04:56:28;102628.00;;;6.00;100.00
60371;BME280;48550;40.588;49.684;2023-02-28T04:58:54;102618.31;;;5.82;100.00
60371;BME280;48550;40.588;49.684;2023-02-28T05:01:26;102646.66;;;6.00;100.00
60371;BME280;48550;40.588;49.684;2023-02-28T05:03:54;102645.09;;;5.80;100.00
60371;BME280;48550;40.588;49.684;2023-02-28T05:06:21;102634.91;;;5.93;100.00
60371;BME280;48550;40.588;49.684;2023-02-28T05:08:47;102650.91;;;5.93;100.00
60371;BME280;48550;40.588;49.684;2023-02-28T05:11:19;102648.13;;;5.95;100.00
60371;BME280;48550;40.588;49.684;2023-02-28T05:13:45;102662.28;;;5.95;100.00
60371;BME280;48550;40.588;49.684;2023-02-28T05:16:11;102675.09;;;5.82;100.00
60371;BME280;48550;40.588;49.684;2023-02-28T05:18:37;102662.47;;;5.84;100.00
60371;BME280;48550;40.588;49.684;2023-02-28T05:21:03;102666.50;;;5.88;100.00
60371;BME280;48550;40.588;49.684;2023-02-28T05:23:29;102669.78;;;5.82;100.00
60371;BME280;48550;40.588;49.684;2023-02-28T05:25:55;102665.88;;;5.23;100.00
60371;BME280;48550;40.588;49.684;2023-02-28T05:28:21;102671.22;;;5.41;100.00
60371;BME280;48550;40.588;49.684;2023-02-28T05:30:47;102665.28;;;5.29;100.00
60371;BME280;48550;40.588;49.684;2023-02-28T05:33:13;102655.00;;;5.70;100.00
60371;BME280;48550;40.588;49.684;2023-02-28T05:35:40;102657.22;;;5.57;100.00
60371;BME280;48550;40.588;49.684;2023-02-28T05:38:06;102659.44;;;5.61;100.00
60371;BME280;48550;40.588;49.684;2023-02-28T05:40:32;102656.47;;;5.64;100.00
60371;BME280;48550;40.588;49.684;2023-02-28T05:42:58;102664.09;;;5.95;100.00
60371;BME280;48550;40.588;49.684;2023-02-28T05:45:23;102654.78;;;5.63;100.00
60371;BME280;48550;40.588;49.684;2023-02-28T05:47:53;102657.47;;;5.99;100.00
60371;BME280;48550;40.588;49.684;2023-02-28T05:50:18;102651.16;;;6.00;100.00
60371;BME280;48550;40.588;49.684;2023-02-28T05:52:51;102649.78;;;5.96;100.00
60371;BME280;48550;40.588;49.684;2023-02-28T05:55:17;102653.66;;;5.66;100.00
60371;BME280;48550;40.588;49.684;2023-02-28T05:57:43;102664.75;;;6.15;100.00
60371;BME280;48550;40.588;49.684;2023-02-28T06:00:10;102658.38;;;6.08;100.00
60371;BME280;48550;40.588;49.684;2023-02-28T06:02:35;102669.25;;;6.14;100.00
60371;BME280;48550;40.588;49.684;2023-02-28T06:05:01;102668.72;;;6.11;100.00
60371;BME280;48550;40.588;49.684;2023-02-28T06:07:27;102654.94;;;5.80;100.00
60371;BME280;48550;40.588;49.684;2023-02-28T06:09:53;102668.78;;;6.19;100.00
60371;BME280;48550;40.588;49.684;2023-02-28T06:12:18;102675.03;;;5.74;100.00
60371;BME280;48550;40.588;49.684;2023-02-28T06:14:44;102677.63;;;5.66;100.00
60371;BME280;48550;40.588;49.684;2023-02-28T06:17:10;102675.41;;;5.79;100.00
60371;BME280;48550;40.588;49.684;2023-02-28T06:19:37;102673.66;;;5.88;100.00
60371;BME280;48550;40.588;49.684;2023-02-28T06:22:04;102679.13;;;5.86;100.00
60371;BME280;48550;40.588;49.684;2023-02-28T06:24:31;102678.75;;;5.63;100.00
60371;BME280;48550;40.588;49.684;2023-02-28T06:26:57;102681.44;;;5.63;100.00
60371;BME280;48550;40.588;49.684;2023-02-28T06:29:31;102682.19;;;5.56;100.00
60371;BME280;48550;40.588;49.684;2023-02-28T06:31:57;102681.03;;;5.40;100.00
60371;BME280;48550;40.588;49.684;2023-02-28T06:34:22;102674.72;;;5.59;100.00
60371;BME280;48550;40.588;49.684;2023-02-28T06:36:50;102677.09;;;5.80;100.00
60371;BME280;48550;40.588;49.684;2023-02-28T06:39:16;102668.41;;;5.78;100.00
60371;BME280;48550;40.588;49.684;2023-02-28T06:41:43;102671.59;;;6.17;100.00
60371;BME280;48550;40.588;49.684;2023-02-28T06:44:17;102671.13;;;6.22;100.00
60371;BME280;48550;40.588;49.684;2023-02-28T06:46:44;102661.44;;;5.95;100.00
60371;BME280;48550;40.588;49.684;2023-02-28T06:49:11;102657.75;;;6.14;100.00
60371;BME280;48550;40.588;49.684;2023-02-28T06:51:39;102657.91;;;5.94;100.00
60371;BME280;48550;40.588;49.684;2023-02-28T06:54:07;102649.53;;;5.89;100.00
60371;BME280;48550;40.588;49.684;2023-02-28T06:56:36;102640.41;;;5.92;100.00
60371;BME280;48550;40.588;49.684;2023-02-28T06:59:03;102657.13;;;6.46;100.00
60371;BME280;48550;40.588;49.684;2023-02-28T07:01:29;102653.66;;;6.01;100.00
60371;BME280;48550;40.588;49.684;2023-02-28T07:03:57;102655.34;;;6.02;100.00
60371;BME280;48550;40.588;49.684;2023-02-28T07:06:23;102651.69;;;6.03;100.00
60371;BME280;48550;40.588;49.684;2023-02-28T07:08:50;102649.50;;;6.25;100.00
60371;BME280;48550;40.588;49.684;2023-02-28T07:11:19;102658.22;;;6.35;100.00
60371;BME280;48550;40.588;49.684;2023-02-28T07:13:44;102655.75;;;6.42;100.00
60371;BME280;48550;40.588;49.684;2023-02-28T07:16:12;102647.66;;;6.25;100.00
60371;BME280;48550;40.588;49.684;2023-02-28T07:18:38;102652.78;;;6.19;100.00
60371;BME280;48550;40.588;49.684;2023-02-28T07:21:05;102642.38;;;6.08;100.00
60371;BME280;48550;40.588;49.684;2023-02-28T07:23:32;102646.03;;;6.32;100.00
60371;BME280;48550;40.588;49.684;2023-02-28T07:25:58;102647.47;;;5.83;100.00
60371;BME280;48550;40.588;49.684;2023-02-28T07:28:24;102647.41;;;5.93;100.00
60371;BME280;48550;40.588;49.684;2023-02-28T07:30:50;102646.44;;;5.58;100.00
60371;BME280;48550;40.588;49.684;2023-02-28T07:33:16;102651.38;;;5.35;100.00
60371;BME280;48550;40.588;49.684;2023-02-28T07:35:42;102649.19;;;6.28;100.00
60371;BME280;48550;40.588;49.684;2023-02-28T07:38:08;102634.38;;;6.67;100.00
60371;BME280;48550;40.588;49.684;2023-02-28T07:40:34;102642.25;;;6.69;100.00
60371;BME280;48550;40.588;49.684;2023-02-28T07:43:01;102637.91;;;7.10;100.00
60371;BME280;48550;40.588;49.684;2023-02-28T07:45:27;102638.75;;;7.19;100.00
60371;BME280;48550;40.588;49.684;2023-02-28T07:47:54;102636.16;;;6.85;100.00
60371;BME280;48550;40.588;49.684;2023-02-28T07:50:20;102626.44;;;6.76;100.00
60371;BME280;48550;40.588;49.684;2023-02-28T07:52:45;102619.50;;;6.99;100.00
60371;BME280;48550;40.588;49.684;2023-02-28T07:55:11;102620.41;;;7.40;100.00
60371;BME280;48550;40.588;49.684;2023-02-28T07:57:37;102621.06;;;7.34;100.00
60371;BME280;48550;40.588;49.684;2023-02-28T08:00:04;102622.22;;;7.15;100.00
60371;BME280;48550;40.588;49.684;2023-02-28T08:02:30;102614.25;;;8.21;100.00
60371;BME280;48550;40.588;49.684;2023-02-28T08:04:56;102607.66;;;8.56;100.00
60371;BME280;48550;40.588;49.684;2023-02-28T08:07:22;102605.88;;;8.40;100.00
60371;BME280;48550;40.588;49.684;2023-02-28T08:09:48;102594.91;;;7.70;100.00
60371;BME280;48550;40.588;49.684;2023-02-28T08:12:14;102603.22;;;8.08;100.00
60371;BME280;48550;40.588;49.684;2023-02-28T08:14:40;102586.06;;;7.61;100.00
60371;BME280;48550;40.588;49.684;2023-02-28T08:17:05;102591.56;;;7.84;100.00
60371;BME280;48550;40.588;49.684;2023-02-28T08:19:31;102582.56;;;7.53;100.00
60371;BME280;48550;40.588;49.684;2023-02-28T08:21:58;102587.22;;;7.51;100.00
60371;BME280;48550;40.588;49.684;2023-02-28T08:24:24;102578.16;;;7.27;100.00
60371;BME280;48550;40.588;49.684;2023-02-28T08:26:50;102577.66;;;7.24;100.00
60371;BME280;48550;40.588;49.684;2023-02-28T08:29:15;102576.53;;;7.67;100.00
60371;BME280;48550;40.588;49.684;2023-02-28T08:31:41;102573.88;;;7.51;100.00
60371;BME280;48550;40.588;49.684;2023-02-28T08:34:09;102575.38;;;7.45;100.00
60371;BME280;48550;40.588;49.684;2023-02-28T08:36:36;102570.84;;;7.38;100.00
60371;BME280;48550;40.588;49.684;2023-02-28T08:39:02;102560.97;;;7.22;100.00
60371;BME280;48550;40.588;49.684;2023-02-28T08:41:28;102559.28;;;7.13;100.00
60371;BME280;48550;40.588;49.684;2023-02-28T08:43:54;102558.81;;;7.17;100.00
60371;BME280;48550;40.588;49.684;2023-02-28T08:46:20;102558.50;;;7.53;100.00
60371;BME280;48550;40.588;49.684;2023-02-28T08:48:46;102550.31;;;7.62;100.00
60371;BME280;48550;40.588;49.684;2023-02-28T08:51:16;102543.66;;;7.50;100.00
60371;BME280;48550;40.588;49.684;2023-02-28T08:53:44;102533.09;;;7.16;100.00
60371;BME280;48550;40.588;49.684;2023-02-28T08:56:15;102525.41;;;7.70;100.00
60371;BME280;48550;40.588;49.684;2023-02-28T08:58:42;102532.13;;;7.50;100.00
60371;BME280;48550;40.588;49.684;2023-02-28T09:01:13;102531.72;;;7.93;100.00
60371;BME280;48550;40.588;49.684;2023-02-28T09:03:39;102518.06;;;7.31;100.00
60371;BME280;48550;40.588;49.684;2023-02-28T09:06:06;102505.22;;;7.11;100.00
60371;BME280;48550;40.588;49.684;2023-02-28T09:08:32;102501.38;;;7.13;100.00
60371;BME280;48550;40.588;49.684;2023-02-28T09:10:59;102495.22;;;7.13;100.00
60371;BME280;48550;40.588;49.684;2023-02-28T09:13:25;102491.03;;;7.26;100.00
60371;BME280;48550;40.588;49.684;2023-02-28T09:15:52;102488.53;;;7.25;100.00
60371;BME280;48550;40.588;49.684;2023-02-28T09:18:18;102481.84;;;7.21;100.00
60371;BME280;48550;40.588;49.684;2023-02-28T09:20:44;102470.94;;;6.65;100.00
60371;BME280;48550;40.588;49.684;2023-02-28T09:23:11;102474.63;;;6.64;100.00
60371;BME280;48550;40.588;49.684;2023-02-28T09:25:49;102465.84;;;6.22;100.00
60371;BME280;48550;40.588;49.684;2023-02-28T09:28:15;102468.75;;;6.02;100.00
60371;BME280;48550;40.588;49.684;2023-02-28T09:30:45;102462.78;;;6.09;100.00
60371;BME280;48550;40.588;49.684;2023-02-28T09:33:13;102456.75;;;5.98;100.00
60371;BME280;48550;40.588;49.684;2023-02-28T09:35:39;102449.09;;;6.03;100.00
60371;BME280;48550;40.588;49.684;2023-02-28T09:38:05;102447.56;;;5.75;100.00
60371;BME280;48550;40.588;49.684;2023-02-28T09:40:37;102448.53;;;5.92;100.00
60371;BME280;48550;40.588;49.684;2023-02-28T09:43:03;102429.28;;;6.06;100.00
60371;BME280;48550;40.588;49.684;2023-02-28T09:45:37;102425.75;;;5.71;100.00
60371;BME280;48550;40.588;49.684;2023-02-28T09:48:23;102419.81;;;5.86;100.00
60371;BME280;48550;40.588;49.684;2023-02-28T09:50:52;102422.59;;;5.76;100.00
60371;BME280;48550;40.588;49.684;2023-02-28T09:53:27;102421.97;;;5.82;100.00
60371;BME280;48550;40.588;49.684;2023-02-28T09:56:18;102409.22;;;5.34;100.00
60371;BME280;48550;40.588;49.684;2023-02-28T10:04:24;102399.91;;;6.48;100.00
60371;BME280;48550;40.588;49.684;2023-02-28T10:06:54;102393.53;;;6.25;100.00
60371;BME280;48550;40.588;49.684;2023-02-28T10:09:27;102387.31;;;6.08;100.00
60371;BME280;48550;40.588;49.684;2023-02-28T10:11:59;102386.47;;;6.08;100.00
60371;BME280;48550;40.588;49.684;2023-02-28T10:14:28;102384.34;;;6.19;100.00
60371;BME280;48550;40.588;49.684;2023-02-28T10:19:30;102378.47;;;5.99;100.00
60371;BME280;48550;40.588;49.684;2023-02-28T10:22:05;102371.97;;;6.02;100.00
60371;BME280;48550;40.588;49.684;2023-02-28T10:24:44;102367.34;;;5.78;100.00
60371;BME280;48550;40.588;49.684;2023-02-28T10:29:43;102373.19;;;5.48;100.00
60371;BME280;48550;40.588;49.684;2023-02-28T10:32:12;102369.84;;;5.46;100.00
60371;BME280;48550;40.588;49.684;2023-02-28T10:34:39;102372.34;;;5.47;100.00
60371;BME280;48550;40.588;49.684;2023-02-28T10:37:05;102363.94;;;5.26;100.00
60371;BME280;48550;40.588;49.684;2023-02-28T10:39:43;102363.81;;;5.35;100.00
60371;BME280;48550;40.588;49.684;2023-02-28T10:42:27;102363.75;;;5.53;100.00
60371;BME280;48550;40.588;49.684;2023-02-28T10:47:56;102360.88;;;5.89;100.00
60371;BME280;48550;40.588;49.684;2023-02-28T10:59:28;102349.00;;;5.75;100.00
60371;BME280;48550;40.588;49.684;2023-02-28T11:01:46;102347.34;;;6.08;100.00
60371;BME280;48550;40.588;49.684;2023-02-28T11:07:16;102342.00;;;6.16;100.00
60371;BME280;48550;40.588;49.684;2023-02-28T11:09:45;102338.03;;;6.36;100.00
60371;BME280;48550;40.588;49.684;2023-02-28T11:12:28;102336.53;;;6.66;100.00
60371;BME280;48550;40.588;49.684;2023-02-28T11:14:58;102333.03;;;6.98;100.00
60371;BME280;48550;40.588;49.684;2023-02-28T11:17:27;102337.69;;;7.13;100.00
60371;BME280;48550;40.588;49.684;2023-02-28T11:19:56;102337.00;;;7.11;100.00
60371;BME280;48550;40.588;49.684;2023-02-28T11:22:25;102326.38;;;6.94;100.00
60371;BME280;48550;40.588;49.684;2023-02-28T11:24:56;102330.22;;;6.67;100.00
60371;BME280;48550;40.588;49.684;2023-02-28T11:29:54;102322.72;;;6.87;100.00
60371;BME280;48550;40.588;49.684;2023-02-28T11:32:22;102317.38;;;6.87;100.00
60371;BME280;48550;40.588;49.684;2023-02-28T11:37:27;102321.91;;;6.71;100.00
60371;BME280;48550;40.588;49.684;2023-02-28T11:39:54;102308.03;;;6.51;100.00
60371;BME280;48550;40.588;49.684;2023-02-28T11:42:35;102303.03;;;6.23;100.00
60371;BME280;48550;40.588;49.684;2023-02-28T11:45:28;102307.38;;;6.41;100.00
60371;BME280;48550;40.588;49.684;2023-02-28T11:48:18;102301.50;;;6.04;100.00
60371;BME280;48550;40.588;49.684;2023-02-28T11:56:10;102303.88;;;6.32;100.00
60371;BME280;48550;40.588;49.684;2023-02-28T12:01:36;102294.97;;;5.91;100.00
60371;BME280;48550;40.588;49.684;2023-02-28T12:16:00;102289.38;;;6.18;100.00
60371;BME280;48550;40.588;49.684;2023-02-28T12:21:42;102274.84;;;6.04;100.00
60371;BME280;48550;40.588;49.684;2023-02-28T12:24:39;102279.19;;;6.79;100.00
60371;BME280;48550;40.588;49.684;2023-02-28T12:27:13;102273.03;;;6.62;100.00
60371;BME280;48550;40.588;49.684;2023-02-28T12:29:46;102272.81;;;6.96;100.00
60371;BME280;48550;40.588;49.684;2023-02-28T12:32:18;102268.53;;;6.62;100.00
60371;BME280;48550;40.588;49.684;2023-02-28T12:35:04;102264.63;;;6.97;100.00
60371;BME280;48550;40.588;49.684;2023-02-28T12:40:23;102266.19;;;6.51;100.00
60371;BME280;48550;40.588;49.684;2023-02-28T12:43:02;102257.50;;;6.65;100.00
60371;BME280;48550;40.588;49.684;2023-02-28T12:45:50;102255.50;;;6.67;100.00
60371;BME280;48550;40.588;49.684;2023-02-28T12:48:24;102254.38;;;6.70;100.00
60371;BME280;48550;40.588;49.684;2023-02-28T12:50:51;102261.50;;;6.61;100.00
60371;BME280;48550;40.588;49.684;2023-02-28T12:53:29;102249.66;;;6.64;100.00
60371;BME280;48550;40.588;49.684;2023-02-28T12:56:19;102259.19;;;6.50;100.00
60371;BME280;48550;40.588;49.684;2023-02-28T12:59:03;102253.03;;;6.50;100.00
60371;BME280;48550;40.588;49.684;2023-02-28T13:08:08;102248.16;;;6.86;100.00
60371;BME280;48550;40.588;49.684;2023-02-28T13:10:45;102252.50;;;6.87;100.00
60371;BME280;48550;40.588;49.684;2023-02-28T13:13:17;102246.91;;;7.13;100.00
60371;BME280;48550;40.588;49.684;2023-02-28T13:16:04;102240.94;;;7.73;100.00
60371;BME280;48550;40.588;49.684;2023-02-28T13:20:56;102243.38;;;7.82;100.00
60371;BME280;48550;40.588;49.684;2023-02-28T13:34:42;102232.53;;;7.84;100.00
60371;BME280;48550;40.588;49.684;2023-02-28T13:48:03;102244.88;;;7.85;100.00
60371;BME280;48550;40.588;49.684;2023-02-28T13:50:36;102247.44;;;7.47;100.00
60371;BME280;48550;40.588;49.684;2023-02-28T14:01:47;102238.25;;;7.03;100.00
60371;BME280;48550;40.588;49.684;2023-02-28T14:04:56;102249.41;;;7.14;100.00
60371;BME280;48550;40.588;49.684;2023-02-28T14:07:23;102247.16;;;6.87;100.00
60371;BME280;48550;40.588;49.684;2023-02-28T14:10:03;102250.09;;;7.08;100.00
60371;BME280;48550;40.588;49.684;2023-02-28T14:15:40;102247.19;;;7.26;100.00
60371;BME280;48550;40.588;49.684;2023-02-28T14:18:18;102252.56;;;7.57;100.00
60371;BME280;48550;40.588;49.684;2023-02-28T14:20:47;102257.84;;;6.79;100.00
60371;BME280;48550;40.588;49.684;2023-02-28T14:23:26;102249.19;;;6.60;100.00
60371;BME280;48550;40.588;49.684;2023-02-28T14:26:17;102246.19;;;6.55;100.00
60371;BME280;48550;40.588;49.684;2023-02-28T14:31:46;102251.53;;;6.23;100.00
60371;BME280;48550;40.588;49.684;2023-02-28T14:36:48;102254.19;;;6.39;100.00
60371;BME280;48550;40.588;49.684;2023-02-28T14:39:18;102247.53;;;6.35;100.00
60371;BME280;48550;40.588;49.684;2023-02-28T14:41:46;102261.22;;;6.24;100.00
60371;BME280;48550;40.588;49.684;2023-02-28T14:44:19;102258.53;;;6.16;100.00
60371;BME280;48550;40.588;49.684;2023-02-28T14:46:49;102268.38;;;6.40;100.00
60371;BME280;48550;40.588;49.684;2023-02-28T14:51:44;102276.53;;;6.54;100.00
60371;BME280;48550;40.588;49.684;2023-02-28T14:54:15;102275.69;;;6.54;100.00
60371;BME280;48550;40.588;49.684;2023-02-28T14:56:41;102268.19;;;6.74;100.00
60371;BME280;48550;40.588;49.684;2023-02-28T14:59:39;102276.34;;;6.88;100.00
60371;BME280;48550;40.588;49.684;2023-02-28T15:02:20;102263.00;;;6.64;100.00
60371;BME280;48550;40.588;49.684;2023-02-28T15:04:57;102271.88;;;6.48;100.00
60371;BME280;48550;40.588;49.684;2023-02-28T15:07:24;102278.22;;;6.72;100.00
60371;BME280;48550;40.588;49.684;2023-02-28T15:10:12;102272.53;;;6.42;100.00
60371;BME280;48550;40.588;49.684;2023-02-28T15:12:40;102275.28;;;7.06;100.00